Time;durP1;ratioP1;P1;durP2;ratioP2;P2;SDS_P1;SDS_P2;PMS_P1;PMS_P2;Temp;Humidity;BMP_temperature;BMP_pressure;BME280_temperature;BME280_humidity;BME280_pressure;Samples;Min_cycle;Max_cycle;Signal;HPM_P1;HPM_P2
2022/06/07 00:00:11;;;;;;;;;;;17.10;97.40;;;;;;4315857;33;43573;-81
2022/06/07 00:02:40;;;;;;;;;;;17.10;97.50;;;;;;4302474;33;43867;-82
2022/06/07 00:05:07;;;;;;;;;;;17.10;97.50;;;;;;4302432;33;44204;-81
2022/06/07 00:07:37;;;;;;;;;;;17.10;97.60;;;;;;4314275;33;44615;-81
2022/06/07 00:10:13;;;;;;;;;;;17.10;97.30;;;;;;4302966;33;43058;-81
2022/06/07 00:12:42;;;;;;;;;;;17.10;97.50;;;;;;4315759;33;42670;-81
2022/06/07 00:15:11;;;;;;;;;;;17.00;97.20;;;;;;4315696;33;44626;-81
2022/06/07 00:17:38;;;;;;;;;;;17.00;97.40;;;;;;4315347;33;44263;-81
2022/06/07 00:20:07;;;;;;;;;;;17.00;97.40;;;;;;4315256;33;43264;-82
2022/06/07 00:22:35;;;;;;;;;;;17.00;97.40;;;;;;4302137;33;44084;-81
2022/06/07 00:25:03;;;;;;;;;;;17.00;97.60;;;;;;4315760;33;43897;-81
2022/06/07 00:27:30;;;;;;;;;;;17.00;97.60;;;;;;4315165;33;44190;-81
2022/06/07 00:29:57;;;;;;;;;;;17.00;97.40;;;;;;4301101;33;44223;-81
2022/06/07 00:32:24;;;;;;;;;;;17.00;97.40;;;;;;4301244;33;43911;-81
2022/06/07 00:34:52;;;;;;;;;;;16.90;97.60;;;;;;4299707;33;44103;-81
2022/06/07 00:37:19;;;;;;;;;;;16.90;97.60;;;;;;4300630;33;42878;-81
2022/06/07 00:39:46;;;;;;;;;;;16.90;97.60;;;;;;4301130;33;44350;-81
2022/06/07 00:42:13;;;;;;;;;;;16.90;97.70;;;;;;4300599;33;43320;-81
2022/06/07 00:44:44;;;;;;;;;;;16.90;97.60;;;;;;4300629;33;44053;-81
2022/06/07 00:47:13;;;;;;;;;;;16.90;97.60;;;;;;4300656;33;43965;-81
2022/06/07 00:49:52;;;;;;;;;;;16.90;97.70;;;;;;4288160;33;43304;-81
2022/06/07 00:52:20;;;;;;;;;;;16.90;97.80;;;;;;4303193;33;20034;-82
2022/06/07 00:54:47;;;;;;;;;;;16.90;97.90;;;;;;4290576;33;42333;-82
2022/06/07 00:57:18;;;;;;;;;;;16.90;97.90;;;;;;4303257;33;43821;-81
2022/06/07 00:59:45;;;;;;;;;;;16.90;97.80;;;;;;4290154;33;43895;-81
2022/06/07 01:02:15;;;;;;;;;;;16.90;97.80;;;;;;4303133;33;42718;-81
2022/06/07 01:04:42;;;;;;;;;;;16.80;97.80;;;;;;4303387;33;42788;-80
2022/06/07 01:12:51;;;;;;;;;;;16.80;97.80;;;;;;4290671;33;42951;-80
2022/06/07 01:15:18;;;;;;;;;;;16.80;97.70;;;;;;4303181;33;42979;-80
2022/06/07 01:17:45;;;;;;;;;;;16.80;97.60;;;;;;4290301;33;43856;-80
2022/06/07 01:20:14;;;;;;;;;;;16.80;97.70;;;;;;4289795;33;42946;-81
2022/06/07 01:22:42;;;;;;;;;;;16.70;97.60;;;;;;4303960;33;19999;-81
2022/06/07 01:25:09;;;;;;;;;;;16.80;97.70;;;;;;4302810;33;44263;-81
2022/06/07 01:27:36;;;;;;;;;;;16.70;97.70;;;;;;4301625;33;44816;-80
2022/06/07 01:30:06;;;;;;;;;;;16.70;97.80;;;;;;4302058;33;41912;-80
2022/06/07 01:32:33;;;;;;;;;;;16.70;97.80;;;;;;4290228;33;44934;-80
2022/06/07 01:35:01;;;;;;;;;;;16.70;97.70;;;;;;4302856;33;43785;-81
2022/06/07 01:37:28;;;;;;;;;;;16.70;97.70;;;;;;4290108;33;44195;-80
2022/06/07 01:42:41;;;;;;;;;;;16.60;97.70;;;;;;4303186;33;42830;-80
2022/06/07 01:45:08;;;;;;;;;;;16.60;97.70;;;;;;4302922;33;43023;-79
2022/06/07 01:47:40;;;;;;;;;;;16.60;97.70;;;;;;4289521;33;42694;-80
2022/06/07 01:50:10;;;;;;;;;;;16.60;97.80;;;;;;4303145;33;43051;-80
2022/06/07 01:52:37;;;;;;;;;;;16.50;97.70;;;;;;4302416;33;44279;-80
2022/06/07 01:55:05;;;;;;;;;;;16.50;97.70;;;;;;4289719;33;43574;-80
2022/06/07 01:57:32;;;;;;;;;;;16.50;97.80;;;;;;4302478;33;43275;-81
2022/06/07 02:00:04;;;;;;;;;;;16.40;97.80;;;;;;4289347;33;43233;-79
2022/06/07 02:02:31;;;;;;;;;;;16.50;97.90;;;;;;4302049;33;44212;-81
2022/06/07 02:04:58;;;;;;;;;;;16.40;97.80;;;;;;4302201;33;44570;-81
2022/06/07 02:07:26;;;;;;;;;;;16.40;97.70;;;;;;4302328;33;42306;-80
2022/06/07 02:09:53;;;;;;;;;;;16.40;97.80;;;;;;4289575;33;43060;-81
2022/06/07 02:12:22;;;;;;;;;;;16.40;97.80;;;;;;4302108;33;44869;-81
2022/06/07 02:14:52;;;;;;;;;;;16.40;97.80;;;;;;4302058;33;43346;-81
2022/06/07 02:17:19;;;;;;;;;;;16.40;97.90;;;;;;4289729;33;44253;-80
2022/06/07 02:19:49;;;;;;;;;;;16.40;97.90;;;;;;4289291;33;44258;-81
2022/06/07 02:22:16;;;;;;;;;;;16.40;97.80;;;;;;4302482;33;44300;-80
2022/06/07 02:24:43;;;;;;;;;;;16.40;97.90;;;;;;4302528;33;43981;-81
2022/06/07 02:27:14;;;;;;;;;;;16.30;97.80;;;;;;4300938;33;44025;-80
2022/06/07 02:29:43;;;;;;;;;;;16.30;97.80;;;;;;4302505;33;43168;-81
2022/06/07 02:32:16;;;;;;;;;;;16.30;97.90;;;;;;4300772;33;43501;-81
2022/06/07 02:34:45;;;;;;;;;;;16.30;97.90;;;;;;4302032;33;45811;-80
2022/06/07 02:37:13;;;;;;;;;;;16.30;97.90;;;;;;4302278;33;42832;-81
2022/06/07 02:39:43;;;;;;;;;;;16.30;98.00;;;;;;4288783;33;44176;-81
2022/06/07 02:42:12;;;;;;;;;;;16.30;97.90;;;;;;4301711;33;43180;-81
2022/06/07 02:44:40;;;;;;;;;;;16.30;98.00;;;;;;4301723;33;42698;-80
2022/06/07 02:47:07;;;;;;;;;;;16.20;98.00;;;;;;4301903;33;43920;-81
2022/06/07 02:49:34;;;;;;;;;;;16.30;98.10;;;;;;4301695;33;44096;-81
2022/06/07 02:52:01;;;;;;;;;;;16.20;98.00;;;;;;4300455;33;43496;-80
2022/06/07 02:54:35;;;;;;;;;;;16.20;98.00;;;;;;4301573;33;42748;-81
2022/06/07 02:57:06;;;;;;;;;;;16.20;98.10;;;;;;4301562;33;44227;-81
2022/06/07 02:59:33;;;;;;;;;;;16.20;98.10;;;;;;4301983;33;45118;-80
2022/06/07 03:02:03;;;;;;;;;;;16.20;98.10;;;;;;4288937;33;44236;-81
2022/06/07 03:04:33;;;;;;;;;;;16.20;98.10;;;;;;4301910;33;43136;-80
2022/06/07 03:07:00;;;;;;;;;;;16.20;98.10;;;;;;4301407;33;43934;-80
2022/06/07 03:09:28;;;;;;;;;;;16.20;98.10;;;;;;4301692;33;44093;-80
2022/06/07 03:11:56;;;;;;;;;;;16.20;98.10;;;;;;4288719;33;42909;-81
2022/06/07 03:14:25;;;;;;;;;;;16.20;98.10;;;;;;4300923;33;44229;-80
2022/06/07 03:16:56;;;;;;;;;;;16.20;98.20;;;;;;4300746;33;42749;-80
2022/06/07 03:19:23;;;;;;;;;;;16.20;98.20;;;;;;4301237;33;43430;-81
2022/06/07 03:21:50;;;;;;;;;;;16.20;98.20;;;;;;4301283;33;42482;-80
2022/06/07 03:24:20;;;;;;;;;;;16.20;98.10;;;;;;4288175;33;42871;-81
2022/06/07 03:26:47;;;;;;;;;;;16.20;98.20;;;;;;4301426;33;43492;-81
2022/06/07 03:29:17;;;;;;;;;;;16.20;98.20;;;;;;4301575;33;43206;-81
2022/06/07 03:31:44;;;;;;;;;;;16.10;98.10;;;;;;4301123;33;43162;-81
2022/06/07 03:34:11;;;;;;;;;;;16.10;98.20;;;;;;4301772;33;43928;-80
2022/06/07 03:36:38;;;;;;;;;;;16.10;98.20;;;;;;4288398;33;43848;-81
2022/06/07 03:39:07;;;;;;;;;;;16.10;98.30;;;;;;4301299;33;44098;-81
2022/06/07 03:41:34;;;;;;;;;;;16.10;98.30;;;;;;4301461;33;42638;-81
2022/06/07 03:44:02;;;;;;;;;;;16.10;98.30;;;;;;4288032;33;44185;-81
2022/06/07 03:46:32;;;;;;;;;;;16.20;98.30;;;;;;4301398;33;43514;-81
2022/06/07 03:49:00;;;;;;;;;;;16.10;98.40;;;;;;4301083;33;44133;-81
2022/06/07 03:51:30;;;;;;;;;;;16.10;98.40;;;;;;4300996;33;44287;-81
2022/06/07 03:54:00;;;;;;;;;;;16.10;98.40;;;;;;4288141;33;43198;-81
2022/06/07 03:56:27;;;;;;;;;;;16.10;98.40;;;;;;4301300;33;42795;-81
2022/06/07 03:58:54;;;;;;;;;;;16.10;98.50;;;;;;4288454;33;43508;-81
2022/06/07 04:01:22;;;;;;;;;;;16.10;98.50;;;;;;4299902;33;42651;-81
2022/06/07 04:03:50;;;;;;;;;;;16.10;98.50;;;;;;4300978;33;44584;-81
2022/06/07 04:06:19;;;;;;;;;;;16.10;98.60;;;;;;4287173;33;43042;-81
2022/06/07 04:08:47;;;;;;;;;;;16.10;98.70;;;;;;4301188;33;44349;-81
2022/06/07 04:11:16;;;;;;;;;;;16.10;98.70;;;;;;4301320;33;42179;-81
2022/06/07 04:13:43;;;;;;;;;;;16.10;98.70;;;;;;4300819;33;43887;-81
2022/06/07 04:16:12;;;;;;;;;;;16.10;98.70;;;;;;4300854;33;42226;-81
2022/06/07 04:18:40;;;;;;;;;;;16.10;98.80;;;;;;4300936;33;41992;-81
2022/06/07 04:21:10;;;;;;;;;;;16.10;98.80;;;;;;4300810;33;43155;-81
2022/06/07 04:23:43;;;;;;;;;;;16.10;98.90;;;;;;4288200;33;44424;-82
2022/06/07 04:26:18;;;;;;;;;;;16.10;99.00;;;;;;4302898;33;19999;-80
2022/06/07 04:28:47;;;;;;;;;;;16.10;98.90;;;;;;4303639;33;42822;-82
2022/06/07 04:31:16;;;;;;;;;;;16.10;99.00;;;;;;4290672;33;45220;-80
2022/06/07 04:33:44;;;;;;;;;;;16.10;98.80;;;;;;4303868;33;43250;-80
2022/06/07 04:36:13;;;;;;;;;;;16.10;98.80;;;;;;4303901;33;43399;-79
2022/06/07 04:38:42;;;;;;;;;;;16.10;98.80;;;;;;4303881;33;42957;-81
2022/06/07 04:41:10;;;;;;;;;;;16.10;98.80;;;;;;4290474;33;44407;-82
2022/06/07 04:43:46;;;;;;;;;;;16.10;99.00;;;;;;4291740;33;45704;-80
2022/06/07 04:46:14;;;;;;;;;;;16.10;98.90;;;;;;4303313;33;43851;-81
2022/06/07 04:48:45;;;;;;;;;;;16.10;99.30;;;;;;4291016;33;42886;-80
2022/06/07 04:51:22;;;;;;;;;;;16.10;99.00;;;;;;4290419;33;43639;-81
2022/06/07 04:53:50;;;;;;;;;;;16.10;98.90;;;;;;4304032;33;44383;-80
2022/06/07 04:56:19;;;;;;;;;;;16.10;99.00;;;;;;4290865;33;24798;-81
2022/06/07 04:58:50;;;;;;;;;;;16.10;99.00;;;;;;4303365;33;43990;-82
2022/06/07 05:01:18;;;;;;;;;;;16.10;98.90;;;;;;4303440;33;45086;-81
2022/06/07 05:03:46;;;;;;;;;;;16.10;99.10;;;;;;4302876;33;45762;-80
2022/06/07 05:06:18;;;;;;;;;;;16.10;99.00;;;;;;4290754;33;44235;-81
2022/06/07 05:08:46;;;;;;;;;;;16.10;99.10;;;;;;4303659;33;43441;-81
2022/06/07 05:11:13;;;;;;;;;;;16.10;99.10;;;;;;4289895;33;45398;-79
2022/06/07 05:13:40;;;;;;;;;;;16.10;99.00;;;;;;4303062;33;43985;-80
2022/06/07 05:16:08;;;;;;;;;;;16.10;99.00;;;;;;4303436;33;43857;-81
2022/06/07 05:18:35;;;;;;;;;;;16.10;99.00;;;;;;4302886;33;42779;-81
2022/06/07 05:21:06;;;;;;;;;;;16.10;99.10;;;;;;4302015;33;42833;-81
2022/06/07 05:23:34;;;;;;;;;;;16.10;99.10;;;;;;4303421;33;43168;-80
2022/06/07 05:26:13;;;;;;;;;;;16.10;99.10;;;;;;4303243;33;45295;-81
2022/06/07 05:28:41;;;;;;;;;;;16.10;99.00;;;;;;4304199;33;19999;-81
2022/06/07 05:31:08;;;;;;;;;;;16.10;99.10;;;;;;4303182;33;43220;-81
2022/06/07 05:33:36;;;;;;;;;;;16.10;99.20;;;;;;4302945;33;44168;-80
2022/06/07 05:36:04;;;;;;;;;;;16.10;99.20;;;;;;4303255;33;44296;-81
2022/06/07 05:38:31;;;;;;;;;;;16.10;99.30;;;;;;4302140;33;42710;-80
2022/06/07 05:40:58;;;;;;;;;;;16.10;99.30;;;;;;4302601;33;42695;-80
2022/06/07 05:43:26;;;;;;;;;;;16.10;99.30;;;;;;4290126;33;43431;-81
2022/06/07 05:45:54;;;;;;;;;;;16.10;99.30;;;;;;4303142;33;44021;-80
2022/06/07 05:48:22;;;;;;;;;;;16.10;99.40;;;;;;4289677;33;42488;-80
2022/06/07 05:50:53;;;;;;;;;;;16.10;99.50;;;;;;4302502;33;43216;-81
2022/06/07 05:53:20;;;;;;;;;;;16.10;99.40;;;;;;4302870;33;44670;-80
2022/06/07 05:55:47;;;;;;;;;;;16.10;99.50;;;;;;4289665;33;44588;-80
2022/06/07 05:58:14;;;;;;;;;;;16.20;99.50;;;;;;4302807;33;43907;-81
2022/06/07 06:00:42;;;;;;;;;;;16.20;99.80;;;;;;4302344;33;44415;-81
2022/06/07 06:03:09;;;;;;;;;;;16.10;99.60;;;;;;4302449;33;43816;-80
2022/06/07 06:05:36;;;;;;;;;;;16.10;99.60;;;;;;4289586;33;42903;-81
2022/06/07 06:11:01;;;;;;;;;;;16.20;99.60;;;;;;4302756;33;42660;-81
2022/06/07 06:13:28;;;;;;;;;;;16.10;99.50;;;;;;4289642;33;43145;-80
2022/06/07 06:16:05;;;;;;;;;;;16.10;99.50;;;;;;4302586;33;43185;-80
2022/06/07 06:18:32;;;;;;;;;;;16.20;99.50;;;;;;4302516;33;42690;-81
2022/06/07 06:20:59;;;;;;;;;;;16.20;99.50;;;;;;4302446;33;43966;-81
2022/06/07 06:23:26;;;;;;;;;;;16.20;99.50;;;;;;4302243;33;43474;-81
2022/06/07 06:25:53;;;;;;;;;;;16.20;99.90;;;;;;4288943;33;45792;-82
2022/06/07 06:28:21;;;;;;;;;;;16.20;99.50;;;;;;4301084;33;43987;-82
2022/06/07 06:30:48;;;;;;;;;;;16.20;99.40;;;;;;4301475;33;44151;-78
2022/06/07 06:33:16;;;;;;;;;;;16.20;99.30;;;;;;4302392;33;43262;-80
2022/06/07 06:35:51;;;;;;;;;;;16.20;99.20;;;;;;4302362;33;44007;-80
2022/06/07 06:38:18;;;;;;;;;;;16.20;99.20;;;;;;4288734;33;43309;-80
2022/06/07 06:40:46;;;;;;;;;;;16.20;99.20;;;;;;4301800;33;43235;-80
2022/06/07 06:43:13;;;;;;;;;;;16.20;99.10;;;;;;4301726;33;44488;-81
2022/06/07 06:45:41;;;;;;;;;;;16.20;99.20;;;;;;4288730;33;43075;-80
2022/06/07 06:48:09;;;;;;;;;;;16.20;99.20;;;;;;4288660;33;44056;-80
2022/06/07 06:50:39;;;;;;;;;;;16.20;99.10;;;;;;4300369;33;43069;-82
2022/06/07 06:53:06;;;;;;;;;;;16.20;99.30;;;;;;4301927;33;43841;-80
2022/06/07 06:55:34;;;;;;;;;;;16.20;99.30;;;;;;4288700;33;43258;-80
2022/06/07 06:58:01;;;;;;;;;;;16.20;99.40;;;;;;4301982;33;43671;-80
2022/06/07 07:00:28;;;;;;;;;;;16.20;99.40;;;;;;4301736;33;44299;-80
2022/06/07 07:02:55;;;;;;;;;;;16.20;99.40;;;;;;4301469;33;43273;-79
2022/06/07 07:05:22;;;;;;;;;;;16.20;99.30;;;;;;4300930;33;43597;-81
2022/06/07 07:07:50;;;;;;;;;;;16.20;99.10;;;;;;4288604;33;43788;-81
2022/06/07 07:10:17;;;;;;;;;;;16.20;99.20;;;;;;4301399;33;42895;-80
2022/06/07 07:12:44;;;;;;;;;;;16.20;99.10;;;;;;4301660;33;44088;-81
2022/06/07 07:15:14;;;;;;;;;;;16.20;99.20;;;;;;4288715;33;43814;-79
2022/06/07 07:17:41;;;;;;;;;;;16.20;98.90;;;;;;4288712;33;43928;-81
2022/06/07 07:20:08;;;;;;;;;;;16.20;99.00;;;;;;4301576;33;44200;-80
2022/06/07 07:22:36;;;;;;;;;;;16.20;99.10;;;;;;4300630;33;45543;-80
2022/06/07 07:25:09;;;;;;;;;;;16.20;99.20;;;;;;4288207;33;43076;-81
2022/06/07 07:27:41;;;;;;;;;;;16.20;99.20;;;;;;4301776;33;43447;-80
2022/06/07 07:30:10;;;;;;;;;;;16.20;99.10;;;;;;4301661;33;42629;-80
2022/06/07 07:32:40;;;;;;;;;;;16.20;99.20;;;;;;4301153;33;42671;-81
2022/06/07 07:35:07;;;;;;;;;;;16.20;99.20;;;;;;4300514;33;45593;-80
2022/06/07 07:37:35;;;;;;;;;;;16.20;99.40;;;;;;4288557;33;43076;-80
2022/06/07 07:40:05;;;;;;;;;;;16.20;99.40;;;;;;4288072;33;42132;-80
2022/06/07 07:42:32;;;;;;;;;;;16.20;99.40;;;;;;4288077;33;44630;-80
2022/06/07 07:44:59;;;;;;;;;;;16.20;99.50;;;;;;4301066;33;43795;-80
2022/06/07 07:47:26;;;;;;;;;;;16.20;99.60;;;;;;4301002;33;43726;-81
2022/06/07 07:49:54;;;;;;;;;;;16.30;99.60;;;;;;4300463;33;43470;-80
2022/06/07 07:52:23;;;;;;;;;;;16.30;99.70;;;;;;4288229;33;43502;-80
2022/06/07 07:54:50;;;;;;;;;;;16.30;99.60;;;;;;4287875;33;43918;-79
2022/06/07 07:57:17;;;;;;;;;;;16.30;99.50;;;;;;4301297;33;43861;-81
2022/06/07 07:59:45;;;;;;;;;;;16.30;99.40;;;;;;4299913;33;42621;-79
2022/06/07 08:02:19;;;;;;;;;;;16.30;99.80;;;;;;4303294;33;43342;-81
2022/06/07 08:04:46;;;;;;;;;;;16.30;99.50;;;;;;4291233;33;42997;-78
2022/06/07 08:07:13;;;;;;;;;;;16.30;99.50;;;;;;4304415;33;43191;-80
2022/06/07 08:09:41;;;;;;;;;;;16.30;99.40;;;;;;4304246;33;44634;-81
2022/06/07 08:12:08;;;;;;;;;;;16.30;99.40;;;;;;4302723;33;44444;-84
2022/06/07 08:14:36;;;;;;;;;;;16.30;99.20;;;;;;4303837;33;43509;-80
2022/06/07 08:17:03;;;;;;;;;;;16.30;99.10;;;;;;4290779;33;43006;-79
2022/06/07 08:19:31;;;;;;;;;;;16.30;99.10;;;;;;4290654;33;44178;-79
2022/06/07 08:21:58;;;;;;;;;;;16.30;99.20;;;;;;4291003;33;44486;-81
2022/06/07 08:24:26;;;;;;;;;;;16.40;99.30;;;;;;4291109;33;42961;-80
2022/06/07 08:26:55;;;;;;;;;;;16.30;99.50;;;;;;4291034;33;43641;-80
2022/06/07 08:29:22;;;;;;;;;;;16.30;99.50;;;;;;4303547;33;45823;-83
2022/06/07 08:31:49;;;;;;;;;;;16.40;99.50;;;;;;4303490;33;46107;-80
2022/06/07 08:39:49;;;;;;;;;;;16.40;99.80;;;;;;4304029;33;43460;-81
2022/06/07 08:42:24;;;;;;;;;;;16.40;99.70;;;;;;4302853;33;46033;-79
2022/06/07 08:44:54;;;;;;;;;;;16.50;99.90;;;;;;4290579;33;43596;-80
2022/06/07 08:47:41;;;;;;;;;;;16.50;99.90;;;;;;4303323;33;44122;-82
2022/06/07 08:50:14;;;;;;;;;;;16.50;99.90;;;;;;4304139;33;43607;-79
2022/06/07 08:52:41;;;;;;;;;;;16.50;99.90;;;;;;4303444;33;42655;-79
2022/06/07 08:55:35;;;;;;;;;;;16.50;99.90;;;;;;4290351;33;43886;-81
2022/06/07 08:58:11;;;;;;;;;;;16.60;99.90;;;;;;4301739;33;43063;-79
2022/06/07 09:00:40;;;;;;;;;;;16.60;99.90;;;;;;4303688;33;44964;-82
2022/06/07 09:03:20;;;;;;;;;;;16.60;99.90;;;;;;4290245;33;44219;-79
2022/06/07 09:05:56;;;;;;;;;;;16.60;99.90;;;;;;4303621;33;43906;-80
2022/06/07 09:08:24;;;;;;;;;;;16.70;99.90;;;;;;4290045;33;43473;-80
2022/06/07 09:13:37;;;;;;;;;;;16.70;99.90;;;;;;4302704;33;46139;-81
2022/06/07 09:16:05;;;;;;;;;;;16.80;99.90;;;;;;4302763;33;46048;-80
2022/06/07 09:18:33;;;;;;;;;;;16.70;99.90;;;;;;4302113;33;45091;-80
2022/06/07 09:21:06;;;;;;;;;;;16.80;99.90;;;;;;4302830;33;43233;-78
2022/06/07 09:23:45;;;;;;;;;;;16.80;99.90;;;;;;4290450;33;45151;-79
2022/06/07 09:26:21;;;;;;;;;;;16.80;99.90;;;;;;4303404;33;44217;-81
2022/06/07 09:29:03;;;;;;;;;;;16.80;99.90;;;;;;4290704;33;44224;-80
2022/06/07 09:31:30;;;;;;;;;;;16.80;99.90;;;;;;4289731;33;45114;-79
2022/06/07 09:34:15;;;;;;;;;;;16.80;99.90;;;;;;4302674;33;20003;-78
2022/06/07 09:36:43;;;;;;;;;;;16.80;99.90;;;;;;4289945;33;41969;-79
2022/06/07 09:39:20;;;;;;;;;;;16.80;99.90;;;;;;4302680;33;44196;-79
2022/06/07 09:42:08;;;;;;;;;;;16.80;99.90;;;;;;4290135;33;44265;-78
2022/06/07 09:44:37;;;;;;;;;;;16.90;99.90;;;;;;4302370;33;45241;-78
2022/06/07 09:47:10;;;;;;;;;;;16.90;99.90;;;;;;4302759;33;43044;-78
2022/06/07 09:49:37;;;;;;;;;;;16.90;99.90;;;;;;4303235;33;44114;-79
2022/06/07 09:52:09;;;;;;;;;;;16.90;99.90;;;;;;4289942;33;42785;-79
2022/06/07 09:54:41;;;;;;;;;;;16.90;99.90;;;;;;4302767;33;44029;-80
2022/06/07 09:57:27;;;;;;;;;;;16.90;99.90;;;;;;4301902;33;43279;-80
2022/06/07 09:59:54;;;;;;;;;;;16.90;99.90;;;;;;4302628;33;42581;-80
2022/06/07 10:02:42;;;;;;;;;;;16.90;99.90;;;;;;4302458;33;44267;-80
2022/06/07 10:05:24;;;;;;;;;;;16.90;99.90;;;;;;4303868;33;20038;-80
2022/06/07 10:08:07;;;;;;;;;;;16.90;99.90;;;;;;4290078;33;43908;-80
2022/06/07 10:10:37;;;;;;;;;;;16.90;99.90;;;;;;4289698;33;43325;-79
2022/06/07 10:13:23;;;;;;;;;;;16.90;99.90;;;;;;4289609;33;43479;-78
2022/06/07 10:15:59;;;;;;;;;;;16.90;99.90;;;;;;4289644;33;44862;-77
2022/06/07 10:18:45;;;;;;;;;;;16.90;99.90;;;;;;4289342;33;44233;-79
2022/06/07 10:21:15;;;;;;;;;;;16.90;99.90;;;;;;4289108;33;44076;-78
2022/06/07 10:24:07;;;;;;;;;;;16.90;99.90;;;;;;4289296;33;45099;-78
2022/06/07 10:26:53;;;;;;;;;;;16.90;99.90;;;;;;4289758;33;44327;-78
2022/06/07 10:29:36;;;;;;;;;;;16.90;99.90;;;;;;4289292;33;43662;-78
2022/06/07 10:32:06;;;;;;;;;;;16.90;99.90;;;;;;4289483;33;43467;-79
2022/06/07 10:34:54;;;;;;;;;;;16.90;99.90;;;;;;4301890;33;42930;-79
2022/06/07 10:37:50;;;;;;;;;;;16.90;99.90;;;;;;4302305;33;46218;-78
2022/06/07 10:40:17;;;;;;;;;;;16.90;99.90;;;;;;4302165;33;43720;-79
2022/06/07 10:42:45;;;;;;;;;;;16.90;99.90;;;;;;4289170;33;42946;-80
2022/06/07 10:45:32;;;;;;;;;;;16.90;99.90;;;;;;4288873;33;43557;-80
2022/06/07 10:48:07;;;;;;;;;;;16.90;99.90;;;;;;4289142;33;43339;-79
2022/06/07 10:50:53;;;;;;;;;;;16.90;99.90;;;;;;4289093;33;43359;-79
2022/06/07 10:53:33;;;;;;;;;;;16.90;99.90;;;;;;4301740;33;42719;-79
2022/06/07 10:56:03;;;;;;;;;;;16.90;99.90;;;;;;4302193;33;44342;-79
2022/06/07 10:58:40;;;;;;;;;;;16.90;99.90;;;;;;4301698;33;42615;-79
2022/06/07 11:01:16;;;;;;;;;;;16.90;99.90;;;;;;4289005;33;43566;-79
2022/06/07 11:04:04;;;;;;;;;;;16.90;99.90;;;;;;4301547;33;43455;-78
2022/06/07 11:09:35;;;;;;;;;;;16.90;99.90;;;;;;4302334;33;20045;-79
2022/06/07 11:12:22;;;;;;;;;;;16.90;99.90;;;;;;4288421;33;44168;-79
2022/06/07 11:14:49;;;;;;;;;;;16.90;99.90;;;;;;4288160;33;44629;-80
2022/06/07 11:17:16;;;;;;;;;;;16.90;99.90;;;;;;4301667;33;44570;-80
2022/06/07 11:19:44;;;;;;;;;;;16.90;99.90;;;;;;4288634;33;45024;-80
2022/06/07 11:22:16;;;;;;;;;;;16.90;99.90;;;;;;4301385;33;43786;-80
2022/06/07 11:24:55;;;;;;;;;;;16.90;99.90;;;;;;4288159;33;45216;-80
2022/06/07 11:27:23;;;;;;;;;;;17.00;99.90;;;;;;4288787;33;44206;-80
2022/06/07 11:30:10;;;;;;;;;;;16.90;99.90;;;;;;4288183;33;44205;-81
2022/06/07 11:32:38;;;;;;;;;;;17.00;99.90;;;;;;4301464;33;44893;-80
2022/06/07 11:35:23;;;;;;;;;;;17.00;99.90;;;;;;4287760;33;43860;-80
2022/06/07 11:37:55;;;;;;;;;;;17.00;99.90;;;;;;4289114;33;45732;-79
2022/06/07 11:40:28;;;;;;;;;;;17.00;99.90;;;;;;4301510;33;20061;-79
2022/06/07 11:42:55;;;;;;;;;;;17.00;99.90;;;;;;4288639;33;43566;-80
2022/06/07 11:45:26;;;;;;;;;;;17.00;99.90;;;;;;4300055;33;43825;-79
2022/06/07 11:48:15;;;;;;;;;;;17.00;99.90;;;;;;4288648;33;43302;-79
2022/06/07 11:50:45;;;;;;;;;;;17.00;99.90;;;;;;4301249;33;42273;-81
2022/06/07 11:53:19;;;;;;;;;;;17.00;99.90;;;;;;4301343;33;43640;-79
2022/06/07 11:55:49;;;;;;;;;;;17.00;99.90;;;;;;4288349;33;44720;-79
2022/06/07 11:58:42;;;;;;;;;;;17.10;99.90;;;;;;4288396;33;44262;-80
2022/06/07 12:01:24;;;;;;;;;;;17.10;99.90;;;;;;4301106;33;43025;-80
2022/06/07 12:04:06;;;;;;;;;;;17.10;99.90;;;;;;4272626;33;44062;-80
2022/06/07 12:06:34;;;;;;;;;;;17.10;99.90;;;;;;4272356;33;43003;-79
2022/06/07 12:09:04;;;;;;;;;;;17.10;99.90;;;;;;4272604;33;43231;-80
2022/06/07 12:11:34;;;;;;;;;;;17.10;99.90;;;;;;4271066;33;43183;-80
2022/06/07 12:14:04;;;;;;;;;;;17.10;99.90;;;;;;4272656;33;44165;-81
2022/06/07 12:16:34;;;;;;;;;;;17.10;99.90;;;;;;4272080;33;44058;-80
2022/06/07 12:19:04;;;;;;;;;;;17.10;99.90;;;;;;4272050;33;45054;-80
2022/06/07 12:21:33;;;;;;;;;;;17.10;99.90;;;;;;4272207;33;43025;-79
2022/06/07 12:24:03;;;;;;;;;;;17.10;99.90;;;;;;4272264;33;44389;-80
2022/06/07 12:26:31;;;;;;;;;;;17.10;99.90;;;;;;4271237;33;44926;-80
2022/06/07 12:29:00;;;;;;;;;;;17.20;99.90;;;;;;4270824;33;43482;-80
2022/06/07 12:31:29;;;;;;;;;;;17.20;99.90;;;;;;4272057;33;43473;-80
2022/06/07 12:33:57;;;;;;;;;;;17.20;99.90;;;;;;4272074;33;44999;-80
2022/06/07 12:36:28;;;;;;;;;;;17.20;99.90;;;;;;4272040;33;43485;-80
2022/06/07 12:38:56;;;;;;;;;;;17.20;99.90;;;;;;4272448;33;43942;-80
2022/06/07 12:41:26;;;;;;;;;;;17.20;99.90;;;;;;4273584;33;20084;-80
2022/06/07 12:43:55;;;;;;;;;;;17.20;99.90;;;;;;4271902;33;44616;-81
2022/06/07 12:46:24;;;;;;;;;;;17.20;99.90;;;;;;4271313;33;45099;-80
2022/06/07 12:48:52;;;;;;;;;;;17.20;99.90;;;;;;4285279;33;45244;-81
2022/06/07 12:51:22;;;;;;;;;;;17.20;99.90;;;;;;4273892;33;44754;-81
2022/06/07 12:53:49;;;;;;;;;;;17.20;99.90;;;;;;4274979;33;45785;-82
2022/06/07 12:56:18;;;;;;;;;;;17.20;99.90;;;;;;4274854;33;45213;-82
2022/06/07 12:58:50;;;;;;;;;;;17.20;99.90;;;;;;4273912;33;43987;-83
2022/06/07 13:01:22;;;;;;;;;;;17.30;99.90;;;;;;4285749;33;44445;-83
2022/06/07 13:03:53;;;;;;;;;;;17.30;99.90;;;;;;4300336;33;43475;-81
2022/06/07 13:06:20;;;;;;;;;;;17.30;99.90;;;;;;4288274;33;44806;-82
2022/06/07 13:09:05;;;;;;;;;;;17.20;99.90;;;;;;4300014;33;43228;-81
2022/06/07 13:11:34;;;;;;;;;;;17.30;99.90;;;;;;4289070;33;20003;-81
2022/06/07 13:14:01;;;;;;;;;;;17.30;99.90;;;;;;4288097;33;44219;-81
2022/06/07 13:16:36;;;;;;;;;;;17.30;99.90;;;;;;4287744;33;44524;-81
2022/06/07 13:19:23;;;;;;;;;;;17.30;99.90;;;;;;4287893;33;42990;-81
2022/06/07 13:21:56;;;;;;;;;;;17.30;99.90;;;;;;4287734;33;45780;-81
2022/06/07 13:24:25;;;;;;;;;;;17.40;99.90;;;;;;4288037;33;43479;-82
2022/06/07 13:27:00;;;;;;;;;;;17.40;99.90;;;;;;4287357;33;43035;-82
2022/06/07 13:29:29;;;;;;;;;;;17.30;99.90;;;;;;4287876;33;45599;-82
2022/06/07 13:32:16;;;;;;;;;;;17.40;99.90;;;;;;4288331;33;42548;-82
2022/06/07 13:34:52;;;;;;;;;;;17.40;99.90;;;;;;4287637;33;44227;-82
2022/06/07 13:37:20;;;;;;;;;;;17.40;99.90;;;;;;4288173;33;44225;-82
2022/06/07 13:39:59;;;;;;;;;;;17.40;99.90;;;;;;4287636;33;44952;-82
2022/06/07 13:42:28;;;;;;;;;;;17.40;99.90;;;;;;4300253;33;20046;-81
2022/06/07 13:45:11;;;;;;;;;;;17.40;99.90;;;;;;4299703;33;42860;-81
2022/06/07 13:47:39;;;;;;;;;;;17.40;99.90;;;;;;4287289;33;43451;-81
2022/06/07 13:56:14;;;;;;;;;;;17.40;99.90;;;;;;4288434;33;44754;-81
2022/06/07 13:58:46;;;;;;;;;;;17.40;99.90;;;;;;4287970;33;45419;-81
2022/06/07 14:01:16;;;;;;;;;;;17.40;99.90;;;;;;4286906;33;43576;-81
2022/06/07 14:03:45;;;;;;;;;;;17.40;99.90;;;;;;4286740;33;44038;-81
2022/06/07 14:06:45;;;;;;;;;;;17.40;99.90;;;;;;4287086;33;43487;-80
2022/06/07 14:09:12;;;;;;;;;;;17.40;99.90;;;;;;4271245;33;44014;-79
2022/06/07 14:11:39;;;;;;;;;;;17.40;99.90;;;;;;4287813;33;42499;-80
2022/06/07 14:14:07;;;;;;;;;;;17.40;99.90;;;;;;4286643;33;43480;-79
2022/06/07 14:16:42;;;;;;;;;;;17.40;99.90;;;;;;4287308;33;43885;-80
2022/06/07 14:19:39;;;;;;;;;;;17.40;99.90;;;;;;4298668;33;43819;-80
2022/06/07 14:22:15;;;;;;;;;;;17.40;99.90;;;;;;4282573;33;44107;-80
2022/06/07 14:24:43;;;;;;;;;;;17.40;99.90;;;;;;4286983;33;43880;-80
2022/06/07 14:27:17;;;;;;;;;;;17.40;99.90;;;;;;4287046;33;43899;-80
2022/06/07 14:29:50;;;;;;;;;;;17.50;99.90;;;;;;4286929;33;43910;-81
2022/06/07 14:32:20;;;;;;;;;;;17.50;99.90;;;;;;4286624;33;45137;-81
2022/06/07 14:34:50;;;;;;;;;;;17.50;99.90;;;;;;4298954;33;44287;-81
2022/06/07 14:37:18;;;;;;;;;;;17.50;99.90;;;;;;4287259;33;43503;-80
2022/06/07 14:39:46;;;;;;;;;;;17.40;99.90;;;;;;4287450;33;43229;-80
2022/06/07 14:42:13;;;;;;;;;;;17.50;99.90;;;;;;4287788;33;43910;-80
2022/06/07 14:44:41;;;;;;;;;;;17.40;99.90;;;;;;4287297;33;43151;-80
2022/06/07 14:47:16;;;;;;;;;;;17.50;99.90;;;;;;4287567;33;44615;-80
2022/06/07 14:49:44;;;;;;;;;;;17.50;99.90;;;;;;4286312;33;44206;-79
2022/06/07 14:52:14;;;;;;;;;;;17.50;99.90;;;;;;4287386;33;43481;-81
2022/06/07 14:54:41;;;;;;;;;;;17.50;99.90;;;;;;4286106;33;43285;-81
2022/06/07 14:57:22;;;;;;;;;;;17.50;99.90;;;;;;4287321;33;43900;-80
2022/06/07 14:59:49;;;;;;;;;;;17.50;99.90;;;;;;4287569;33;45717;-81
2022/06/07 15:02:22;;;;;;;;;;;17.50;99.90;;;;;;4292213;33;44367;-81
2022/06/07 15:04:53;;;;;;;;;;;17.50;99.90;;;;;;4289088;33;43868;-80